Local Weather Dagens Jour: BjŲrn Rystedt Sunday 4th of December
Flygplats METAR TAF
Airport METAR TAF
ESSL - Linköping041350Z AUTO 03009KT 9999 BKN022/// OVC033/// M01/M03 Q1032=041430Z 0415/0418 04008KT 9999 SCT011 BKN020 PROB40 0415/0418 4000 SG BKN011=
ESCF - Malmen041350Z AUTO 03009KT 9999 SCT010/// BKN022/// OVC034/// M01/M02 Q1032=NO VALID TAF PUBLISHED
ESSP - Norrköping041350Z AUTO 05008KT 9999 FEW014/// OVC035/// M00/M03 Q1033=NO VALID TAF PUBLISHED
ESGJ - Jönköping041350Z AUTO 05007KT 010V080 9999 SG OVC008/// M01/M01 Q1029 RESG=NO VALID TAF PUBLISHED
ESKN - Skavsta041350Z 02007KT 350V050 9999 BKN033 M01/M03 Q1032=041430Z 0415/0515 02007KT 9999 BKN030 PROB40 0500/0507 BKN006=
ESSV - Visby041350Z 05009KT 9999 OVC016 01/00 Q1030=041430Z 0415/0421 05005KT 9999 BKN016 PROB40 0415/0421 4000 -SN BKN010=
ESGG - Göteborg041350Z 04010KT 9999 -SN OVC008 M01/M03 Q1029=AMD 041251Z 0412/0512 04010KT 9999 SCT009 BKN025 TEMPO 0412/0512 BKN009=
FLEET STATUS
Flygplan Tid till service Tid till flygstopp Flygtid Landningar
Aircraft To service To stop Total time Landings
SE-IUD19.0 h29.0 h12 781.0 h26 174 st.
(1) Startmotorn sitter löst.
SE-KIT46.3 h56.3 h12 953.7 h25 676 st.
(1) Skador funna på höger vinge vid tillsyn
SE-KMH25.8 h30.8 h16 924.2 h62 765 st.
SE-LRL16.8 h26.8 h1 733.2 h3 440 st.
SE-MEKN/AN/A3 959.9 h4 243 st.
(1) Förtydligande avseende handsfacket. Använd inte handsfacket. Vid ava flygning tillse att handsfacket är tömt på innehåll. Locket är på reparation.
(2) Låset till handskfacket är trasig, öppnas vid AVA.
SE-MMZ12.5 h17.5 h937.5 h915 st.
(1) Lås till ventilationsfönstret lossnat, ligger på passagerargolvet fram. Fönstret tejpat nu.
(2) Stallvarnare U/S vid tillsyn, fungerade under och efter flygn
PPR
Ankomst Avgång Flygplan Namn Bränsle
Arrival Departure Aircraft Name Fuel
NOTAM
>>> ESSL/LINKOPING/SAAB <<<
+ AERODROME CONTROL TOWER (TWR) HOURS OF SERVICE ARE NOW MON 0445-1705, TUE 0600-1705, 2145-2245, WED 0445-1705, THU 0600-1705, 2145-2245, FRI 0445-1705, 2145-2245, SAT 0445-0535, 0950-1125, 1605-1705, SUN 0445-0535, 1535-1705, 2145-2245 FROM: 05 DEC 2022 00:00 TO: 11 DEC 2022 23:59
+ OBST ERECTED PSN 583430.4N 153732.8E HGT 187FT AGL ELEV 338FT AMSL. LGTD F R. FROM: 28 NOV 2022 07:00 TO: 24 FEB 2023 11:00 EST
+ FIREFIGHTING AND RESCUE PERIODICALLY DOWNGRADED TO CAT 3 FOR NON COMMERCIAL FLIGHTS, HIGHER WITH 8 MIN PN. CAT 6 FOR COMMERCIAL FLIGHTS. FROM: 21 NOV 2022 00:00 TO: PERM
+ OBST ERECTED PSN 582331N 0154416E HGT 124FT AGL ELEV 406FT AMSL. FROM: 11 NOV 2022 09:12 TO: 10 FEB 2023 12:00 EST
+ OBST ERECTED PSN 582324N 0154405E HGT 125FT AGL ELEV 409FT AMSL. FROM: 11 NOV 2022 09:10 TO: 10 FEB 2023 12:00 EST
+ ALL TRAFFIC REQUIRE PPR FROM ATS FOR APCHS AND TGL. ATS TEL +46(0)60646213 FROM: 11 NOV 2022 09:09 TO: 10 FEB 2023 12:00 EST
+ RWY 29 LIMITED. APCH RWY 29 NOT AVBL IF APCH LGTS ARE REQUIRED DUE AN OBSTRUCTION IN THE HORIZONTAL LIGHT PATTERN. PIC MAY REQUEST RWY 29 IF REQUIRED DUE TO PERFORMANCE LIMITATIONS. THR RWY 29 MISSING 6 LGTS FROM: 11 NOV 2022 08:03 TO: 16 JAN 2023 12:00 EST
+ INFORMATION REGARDING PPR HOSP AND SAR FLIGHTS OUTSIDE HR OF AD ADMINISTRATION CONTACT JRCC FROM: 11 NOV 2022 08:02 TO: 10 FEB 2023 12:00 EST
+ AERODROME CONTROL TOWER (TWR) HOURS OF SERVICE ARE NOW MON 0445-1705, TUE 0445-1705 2145-2245, WED 0445-1705, THU-FRI 0445-1705 2145-2245, SAT 0445-0535 0950-1125 1610-1740, SUN 0445-0535 1535-1705 2145-2245 FROM: 28 NOV 2022 00:00 TO: 04 DEC 2022 23:59
+ OBST ERECTED PSN 582223N 0154148E HGT 138FT AGL ELEV 355FT AMSL. LGTD FROM: 09 NOV 2022 06:59 TO: 09 FEB 2023 10:00 EST
>>> ESSP/NORRKOPING/KUNGSANGEN <<<
+(SNOWTAM 0132 ESSP 12040800 09 5/5/5 100/100/100 03/03/03 DRY SNOW/DRY SNOW/DRY SNOW RWY 09 DRIFTING SNOW.) REPORTED: 04 DEC 2022 08:00 - CRANE ERECTED IN APCH RWY09 PSN 583519N 0161129E HGT 197FT AGL ELEV 240FT AMSL LGTD F R. FROM: 01 DEC 2022 13:05 TO: 01 JAN 2023 09:00
+ FUEL AVAILABILITY HOURS OF SERVICE ARE NOW MON-WED 0630-1430 THU 0500-2030 FRI 0630-1330 SAT-SUN CLSD FROM: 05 DEC 2022 00:00 TO: 25 DEC 2022 23:59
+ AERODROME CONTROL TOWER (TWR) HOURS OF SERVICE ARE NOW MON-WED 0630-1530 THU 0500-2130 FRI 0630-1430 SAT-SUN CLSD FROM: 05 DEC 2022 00:00 TO: 25 DEC 2022 23:59
+ RWY 11/29 CLSD FROM: 08 NOV 2022 07:55 TO: 31 JAN 2023 12:00 EST
+ FUEL AVAILABILITY HOURS OF SERVICE ARE NOW MON-WED 0630-1430, THU 0500-2000, FRI 0630-1330, SAT-SUN CLSD FROM: 21 NOV 2022 00:00 TO: 04 DEC 2022 23:59
+ AERODROME CONTROL TOWER (TWR) HOURS OF SERVICE ARE NOW MON-WED 0630-1530, THU 0500-2100, FRI 0630-1430, SAT-SUN CLSD FROM: 21 NOV 2022 00:00 TO: 04 DEC 2022 23:59
+ CRANE ERECTED IN APCH RWY09 PSN 583518N 0161208E HGT 125FT AGL ELEV 168FT AMSL LGTD F R. FROM: 13 OCT 2022 06:11 TO: 05 JAN 2023 12:00 EST
+ CRANE ERECTED IN APCH RWY09 PSN 583523N 0161100E HGT 253FT AGL ELEV 263FT AMSL. LGTD F R. FROM: 12 OCT 2022 08:31 TO: 05 JAN 2023 12:00 EST
+ PPR REQUIRED FOR IFR-SCHOOL. TEL +46(0)11140200. FROM: 01 OCT 2022 11:04 TO: 22 DEC 2022 12:00 EST
>>> ESCF/LINKOPING/MALMEN <<<